sensor_id;sensor_type;location;lat;lon;timestamp;P1;durP1;ratioP1;P2;durP2;ratioP2
11839;SDS011;5979;50.800;4.904;2023-04-03T00:01:55;6.97;;;6.37;;
11839;SDS011;5979;50.800;4.904;2023-04-03T00:04:20;6.03;;;5.53;;
11839;SDS011;5979;50.800;4.904;2023-04-03T00:06:46;6.73;;;6.13;;
11839;SDS011;5979;50.800;4.904;2023-04-03T00:09:12;5.60;;;5.10;;
11839;SDS011;5979;50.800;4.904;2023-04-03T00:11:38;7.57;;;5.83;;
11839;SDS011;5979;50.800;4.904;2023-04-03T00:14:03;6.97;;;5.20;;
11839;SDS011;5979;50.800;4.904;2023-04-03T00:16:29;6.97;;;5.30;;
11839;SDS011;5979;50.800;4.904;2023-04-03T00:18:55;7.30;;;5.97;;
11839;SDS011;5979;50.800;4.904;2023-04-03T00:21:20;6.77;;;5.20;;
11839;SDS011;5979;50.800;4.904;2023-04-03T00:23:46;5.77;;;5.27;;
11839;SDS011;5979;50.800;4.904;2023-04-03T00:26:12;5.30;;;4.90;;
11839;SDS011;5979;50.800;4.904;2023-04-03T00:28:37;5.80;;;5.20;;
11839;SDS011;5979;50.800;4.904;2023-04-03T00:31:03;5.27;;;4.77;;
11839;SDS011;5979;50.800;4.904;2023-04-03T00:33:29;6.27;;;5.67;;
11839;SDS011;5979;50.800;4.904;2023-04-03T00:35:55;6.13;;;5.53;;
11839;SDS011;5979;50.800;4.904;2023-04-03T00:38:20;6.83;;;5.87;;
11839;SDS011;5979;50.800;4.904;2023-04-03T00:40:47;9.30;;;6.30;;
11839;SDS011;5979;50.800;4.904;2023-04-03T00:43:14;5.80;;;5.00;;
11839;SDS011;5979;50.800;4.904;2023-04-03T00:45:49;7.20;;;5.47;;
11839;SDS011;5979;50.800;4.904;2023-04-03T00:50:57;5.67;;;5.20;;
11839;SDS011;5979;50.800;4.904;2023-04-03T00:53:26;5.93;;;5.33;;
11839;SDS011;5979;50.800;4.904;2023-04-03T00:56:05;5.83;;;5.33;;
11839;SDS011;5979;50.800;4.904;2023-04-03T00:58:37;6.40;;;5.70;;
11839;SDS011;5979;50.800;4.904;2023-04-03T01:01:20;6.37;;;5.57;;
11839;SDS011;5979;50.800;4.904;2023-04-03T01:03:48;6.13;;;5.67;;
11839;SDS011;5979;50.800;4.904;2023-04-03T01:06:15;6.77;;;6.17;;
11839;SDS011;5979;50.800;4.904;2023-04-03T01:08:43;6.00;;;5.60;;
11839;SDS011;5979;50.800;4.904;2023-04-03T01:11:11;6.10;;;5.50;;
11839;SDS011;5979;50.800;4.904;2023-04-03T01:13:37;6.57;;;5.97;;
11839;SDS011;5979;50.800;4.904;2023-04-03T01:16:04;5.93;;;5.37;;
11839;SDS011;5979;50.800;4.904;2023-04-03T01:18:31;6.70;;;5.87;;
11839;SDS011;5979;50.800;4.904;2023-04-03T01:21:23;6.23;;;5.67;;
11839;SDS011;5979;50.800;4.904;2023-04-03T01:26:53;8.13;;;5.80;;
11839;SDS011;5979;50.800;4.904;2023-04-03T01:29:19;5.77;;;5.33;;
11839;SDS011;5979;50.800;4.904;2023-04-03T01:31:52;6.13;;;5.63;;
11839;SDS011;5979;50.800;4.904;2023-04-03T01:34:23;6.53;;;5.97;;
11839;SDS011;5979;50.800;4.904;2023-04-03T01:36:49;6.97;;;6.20;;
11839;SDS011;5979;50.800;4.904;2023-04-03T01:39:16;6.40;;;5.80;;
11839;SDS011;5979;50.800;4.904;2023-04-03T01:41:42;6.70;;;6.10;;
11839;SDS011;5979;50.800;4.904;2023-04-03T01:44:08;6.97;;;6.27;;
11839;SDS011;5979;50.800;4.904;2023-04-03T01:46:34;6.73;;;6.13;;
11839;SDS011;5979;50.800;4.904;2023-04-03T01:48:59;6.63;;;5.97;;
11839;SDS011;5979;50.800;4.904;2023-04-03T01:51:25;6.63;;;6.03;;
11839;SDS011;5979;50.800;4.904;2023-04-03T01:53:51;6.60;;;5.93;;
11839;SDS011;5979;50.800;4.904;2023-04-03T01:56:17;5.83;;;5.43;;
11839;SDS011;5979;50.800;4.904;2023-04-03T01:58:42;6.17;;;5.67;;
11839;SDS011;5979;50.800;4.904;2023-04-03T02:01:08;6.33;;;5.73;;
11839;SDS011;5979;50.800;4.904;2023-04-03T02:03:34;6.27;;;5.77;;
11839;SDS011;5979;50.800;4.904;2023-04-03T02:05:59;6.67;;;6.07;;
11839;SDS011;5979;50.800;4.904;2023-04-03T02:08:25;6.10;;;5.67;;
11839;SDS011;5979;50.800;4.904;2023-04-03T02:10:51;6.67;;;5.83;;
11839;SDS011;5979;50.800;4.904;2023-04-03T02:13:17;6.67;;;6.07;;
11839;SDS011;5979;50.800;4.904;2023-04-03T02:15:44;7.57;;;6.10;;
11839;SDS011;5979;50.800;4.904;2023-04-03T02:18:10;6.17;;;5.67;;
11839;SDS011;5979;50.800;4.904;2023-04-03T02:20:36;5.97;;;5.43;;
11839;SDS011;5979;50.800;4.904;2023-04-03T02:23:02;6.87;;;6.13;;
11839;SDS011;5979;50.800;4.904;2023-04-03T02:25:29;7.87;;;5.93;;
11839;SDS011;5979;50.800;4.904;2023-04-03T02:27:55;6.53;;;5.93;;
11839;SDS011;5979;50.800;4.904;2023-04-03T02:30:21;6.10;;;5.50;;
11839;SDS011;5979;50.800;4.904;2023-04-03T02:32:47;6.87;;;6.27;;
11839;SDS011;5979;50.800;4.904;2023-04-03T02:35:12;7.57;;;5.53;;
11839;SDS011;5979;50.800;4.904;2023-04-03T02:37:38;6.23;;;5.70;;
11839;SDS011;5979;50.800;4.904;2023-04-03T02:40:04;7.63;;;6.17;;
11839;SDS011;5979;50.800;4.904;2023-04-03T02:42:31;7.33;;;6.63;;
11839;SDS011;5979;50.800;4.904;2023-04-03T02:44:57;6.70;;;6.07;;
11839;SDS011;5979;50.800;4.904;2023-04-03T02:47:25;5.90;;;5.40;;
11839;SDS011;5979;50.800;4.904;2023-04-03T02:49:51;5.30;;;4.80;;
11839;SDS011;5979;50.800;4.904;2023-04-03T02:52:17;5.43;;;5.03;;
11839;SDS011;5979;50.800;4.904;2023-04-03T02:54:44;5.50;;;5.00;;
11839;SDS011;5979;50.800;4.904;2023-04-03T02:57:09;6.43;;;5.83;;
11839;SDS011;5979;50.800;4.904;2023-04-03T02:59:36;6.53;;;6.03;;
11839;SDS011;5979;50.800;4.904;2023-04-03T03:02:02;7.07;;;6.37;;
11839;SDS011;5979;50.800;4.904;2023-04-03T03:04:28;5.97;;;5.57;;
11839;SDS011;5979;50.800;4.904;2023-04-03T03:06:54;6.20;;;5.60;;
11839;SDS011;5979;50.800;4.904;2023-04-03T03:09:20;6.30;;;5.77;;
11839;SDS011;5979;50.800;4.904;2023-04-03T03:11:45;5.77;;;5.37;;
11839;SDS011;5979;50.800;4.904;2023-04-03T03:14:11;6.03;;;5.50;;
11839;SDS011;5979;50.800;4.904;2023-04-03T03:16:37;6.43;;;5.73;;
11839;SDS011;5979;50.800;4.904;2023-04-03T03:19:02;5.63;;;5.23;;
11839;SDS011;5979;50.800;4.904;2023-04-03T03:21:28;5.93;;;5.33;;
11839;SDS011;5979;50.800;4.904;2023-04-03T03:23:54;5.80;;;5.40;;
11839;SDS011;5979;50.800;4.904;2023-04-03T03:26:19;6.17;;;5.57;;
11839;SDS011;5979;50.800;4.904;2023-04-03T03:28:45;7.00;;;5.57;;
11839;SDS011;5979;50.800;4.904;2023-04-03T03:31:11;6.40;;;5.83;;
11839;SDS011;5979;50.800;4.904;2023-04-03T03:33:37;6.03;;;5.30;;
11839;SDS011;5979;50.800;4.904;2023-04-03T03:36:03;6.20;;;5.70;;
11839;SDS011;5979;50.800;4.904;2023-04-03T03:38:29;5.70;;;5.30;;
11839;SDS011;5979;50.800;4.904;2023-04-03T03:40:54;6.57;;;5.93;;
11839;SDS011;5979;50.800;4.904;2023-04-03T03:43:20;7.50;;;6.60;;
11839;SDS011;5979;50.800;4.904;2023-04-03T03:45:49;6.70;;;6.10;;
11839;SDS011;5979;50.800;4.904;2023-04-03T03:48:16;8.17;;;6.30;;
11839;SDS011;5979;50.800;4.904;2023-04-03T03:50:42;6.60;;;6.00;;
11839;SDS011;5979;50.800;4.904;2023-04-03T03:53:08;6.63;;;6.03;;
11839;SDS011;5979;50.800;4.904;2023-04-03T03:55:33;6.77;;;6.17;;
11839;SDS011;5979;50.800;4.904;2023-04-03T03:57:59;6.70;;;6.10;;
11839;SDS011;5979;50.800;4.904;2023-04-03T04:00:26;7.27;;;6.67;;
11839;SDS011;5979;50.800;4.904;2023-04-03T04:02:51;7.53;;;6.73;;
11839;SDS011;5979;50.800;4.904;2023-04-03T04:05:17;9.50;;;6.47;;
11839;SDS011;5979;50.800;4.904;2023-04-03T04:07:43;7.37;;;6.60;;
11839;SDS011;5979;50.800;4.904;2023-04-03T04:10:09;8.50;;;6.70;;
11839;SDS011;5979;50.800;4.904;2023-04-03T04:12:35;6.50;;;6.00;;
11839;SDS011;5979;50.800;4.904;2023-04-03T04:15:01;7.43;;;6.77;;
11839;SDS011;5979;50.800;4.904;2023-04-03T04:17:27;8.10;;;7.20;;
11839;SDS011;5979;50.800;4.904;2023-04-03T04:19:53;8.10;;;7.33;;
11839;SDS011;5979;50.800;4.904;2023-04-03T04:22:18;8.50;;;7.50;;
11839;SDS011;5979;50.800;4.904;2023-04-03T04:24:44;11.27;;;7.70;;
11839;SDS011;5979;50.800;4.904;2023-04-03T04:27:10;9.03;;;7.60;;
11839;SDS011;5979;50.800;4.904;2023-04-03T04:29:35;7.77;;;7.07;;
11839;SDS011;5979;50.800;4.904;2023-04-03T04:32:02;7.97;;;7.27;;
11839;SDS011;5979;50.800;4.904;2023-04-03T04:34:28;7.70;;;6.73;;
11839;SDS011;5979;50.800;4.904;2023-04-03T04:36:54;8.17;;;7.40;;
11839;SDS011;5979;50.800;4.904;2023-04-03T04:39:20;7.50;;;6.80;;
11839;SDS011;5979;50.800;4.904;2023-04-03T04:41:46;8.07;;;7.27;;
11839;SDS011;5979;50.800;4.904;2023-04-03T04:44:11;8.00;;;7.30;;
11839;SDS011;5979;50.800;4.904;2023-04-03T04:46:37;7.53;;;6.93;;
11839;SDS011;5979;50.800;4.904;2023-04-03T04:49:03;7.17;;;6.57;;
11839;SDS011;5979;50.800;4.904;2023-04-03T04:51:29;8.27;;;7.47;;
11839;SDS011;5979;50.800;4.904;2023-04-03T04:53:55;8.67;;;7.40;;
11839;SDS011;5979;50.800;4.904;2023-04-03T04:56:21;8.53;;;7.83;;
11839;SDS011;5979;50.800;4.904;2023-04-03T04:58:46;7.97;;;7.17;;
11839;SDS011;5979;50.800;4.904;2023-04-03T05:01:12;7.57;;;6.87;;
11839;SDS011;5979;50.800;4.904;2023-04-03T05:03:38;9.20;;;8.10;;
11839;SDS011;5979;50.800;4.904;2023-04-03T05:06:04;9.13;;;7.73;;
11839;SDS011;5979;50.800;4.904;2023-04-03T05:08:30;8.10;;;7.40;;
11839;SDS011;5979;50.800;4.904;2023-04-03T05:10:56;8.20;;;7.50;;
11839;SDS011;5979;50.800;4.904;2023-04-03T05:13:22;7.63;;;6.83;;
11839;SDS011;5979;50.800;4.904;2023-04-03T05:15:47;7.60;;;6.90;;
11839;SDS011;5979;50.800;4.904;2023-04-03T05:18:13;8.70;;;7.47;;
11839;SDS011;5979;50.800;4.904;2023-04-03T05:20:39;7.90;;;7.10;;
11839;SDS011;5979;50.800;4.904;2023-04-03T05:23:05;10.67;;;7.50;;
11839;SDS011;5979;50.800;4.904;2023-04-03T05:25:31;7.23;;;6.53;;
11839;SDS011;5979;50.800;4.904;2023-04-03T05:27:57;9.40;;;7.63;;
11839;SDS011;5979;50.800;4.904;2023-04-03T05:30:23;9.53;;;8.60;;
11839;SDS011;5979;50.800;4.904;2023-04-03T05:32:49;9.97;;;8.03;;
11839;SDS011;5979;50.800;4.904;2023-04-03T05:35:14;7.93;;;7.23;;
11839;SDS011;5979;50.800;4.904;2023-04-03T05:37:40;7.27;;;6.67;;
11839;SDS011;5979;50.800;4.904;2023-04-03T05:40:06;7.50;;;6.90;;
11839;SDS011;5979;50.800;4.904;2023-04-03T05:42:33;8.57;;;7.87;;
11839;SDS011;5979;50.800;4.904;2023-04-03T05:44:59;8.73;;;7.80;;
11839;SDS011;5979;50.800;4.904;2023-04-03T05:47:25;10.07;;;8.07;;
11839;SDS011;5979;50.800;4.904;2023-04-03T05:49:51;8.00;;;7.30;;
11839;SDS011;5979;50.800;4.904;2023-04-03T05:52:19;8.07;;;7.03;;
11839;SDS011;5979;50.800;4.904;2023-04-03T05:54:53;8.75;;;7.68;;
11839;SDS011;5979;50.800;4.904;2023-04-03T05:57:19;9.03;;;7.03;;
11839;SDS011;5979;50.800;4.904;2023-04-03T05:59:46;9.82;;;7.10;;
11839;SDS011;5979;50.800;4.904;2023-04-03T06:02:13;7.47;;;6.78;;
11839;SDS011;5979;50.800;4.904;2023-04-03T06:04:41;8.27;;;7.40;;
11839;SDS011;5979;50.800;4.904;2023-04-03T06:07:10;8.07;;;7.20;;
11839;SDS011;5979;50.800;4.904;2023-04-03T06:09:38;7.10;;;6.50;;
11839;SDS011;5979;50.800;4.904;2023-04-03T06:12:04;8.63;;;7.93;;
11839;SDS011;5979;50.800;4.904;2023-04-03T06:14:30;8.23;;;7.47;;
11839;SDS011;5979;50.800;4.904;2023-04-03T06:16:55;7.93;;;7.18;;
11839;SDS011;5979;50.800;4.904;2023-04-03T06:19:21;8.85;;;8.05;;
11839;SDS011;5979;50.800;4.904;2023-04-03T06:21:47;8.45;;;7.75;;
11839;SDS011;5979;50.800;4.904;2023-04-03T06:24:14;9.05;;;8.20;;
11839;SDS011;5979;50.800;4.904;2023-04-03T06:26:41;8.82;;;8.07;;
11839;SDS011;5979;50.800;4.904;2023-04-03T06:29:07;10.27;;;8.35;;
11839;SDS011;5979;50.800;4.904;2023-04-03T06:31:33;9.50;;;8.52;;
11839;SDS011;5979;50.800;4.904;2023-04-03T06:33:59;9.85;;;8.70;;
11839;SDS011;5979;50.800;4.904;2023-04-03T06:36:25;9.40;;;8.52;;
11839;SDS011;5979;50.800;4.904;2023-04-03T06:38:51;9.35;;;8.50;;
11839;SDS011;5979;50.800;4.904;2023-04-03T06:41:16;10.45;;;9.40;;
11839;SDS011;5979;50.800;4.904;2023-04-03T06:43:45;12.75;;;10.20;;
11839;SDS011;5979;50.800;4.904;2023-04-03T06:46:19;11.15;;;10.02;;
11839;SDS011;5979;50.800;4.904;2023-04-03T06:48:47;11.30;;;9.52;;
11839;SDS011;5979;50.800;4.904;2023-04-03T06:51:31;10.25;;;9.27;;
11839;SDS011;5979;50.800;4.904;2023-04-03T06:53:57;11.15;;;9.95;;
11839;SDS011;5979;50.800;4.904;2023-04-03T06:56:24;10.77;;;9.55;;
11839;SDS011;5979;50.800;4.904;2023-04-03T06:58:51;11.85;;;10.27;;
11839;SDS011;5979;50.800;4.904;2023-04-03T07:01:19;13.57;;;10.13;;
11839;SDS011;5979;50.800;4.904;2023-04-03T07:03:45;9.85;;;9.02;;
11839;SDS011;5979;50.800;4.904;2023-04-03T07:06:13;11.98;;;9.43;;
11839;SDS011;5979;50.800;4.904;2023-04-03T07:08:39;10.20;;;9.00;;
11839;SDS011;5979;50.800;4.904;2023-04-03T07:11:05;12.95;;;9.80;;
11839;SDS011;5979;50.800;4.904;2023-04-03T07:13:31;10.18;;;9.15;;
11839;SDS011;5979;50.800;4.904;2023-04-03T07:15:57;10.77;;;9.75;;
11839;SDS011;5979;50.800;4.904;2023-04-03T07:18:23;11.07;;;9.70;;
11839;SDS011;5979;50.800;4.904;2023-04-03T07:20:50;10.05;;;9.10;;
11839;SDS011;5979;50.800;4.904;2023-04-03T07:23:16;10.55;;;9.23;;
11839;SDS011;5979;50.800;4.904;2023-04-03T07:25:46;10.52;;;9.52;;
11839;SDS011;5979;50.800;4.904;2023-04-03T07:28:13;10.80;;;9.77;;
11839;SDS011;5979;50.800;4.904;2023-04-03T07:33:36;9.85;;;9.02;;
11839;SDS011;5979;50.800;4.904;2023-04-03T07:36:02;13.98;;;9.50;;
11839;SDS011;5979;50.800;4.904;2023-04-03T07:38:28;10.50;;;9.07;;
11839;SDS011;5979;50.800;4.904;2023-04-03T07:40:54;9.95;;;9.10;;
11839;SDS011;5979;50.800;4.904;2023-04-03T07:43:20;10.32;;;9.32;;
11839;SDS011;5979;50.800;4.904;2023-04-03T07:45:47;10.60;;;8.77;;
11839;SDS011;5979;50.800;4.904;2023-04-03T07:48:16;10.93;;;9.82;;
11839;SDS011;5979;50.800;4.904;2023-04-03T07:50:43;9.60;;;8.60;;
11839;SDS011;5979;50.800;4.904;2023-04-03T07:53:09;12.90;;;9.45;;
11839;SDS011;5979;50.800;4.904;2023-04-03T07:55:35;10.35;;;8.95;;
11839;SDS011;5979;50.800;4.904;2023-04-03T07:58:08;9.57;;;8.60;;
11839;SDS011;5979;50.800;4.904;2023-04-03T08:00:38;9.93;;;9.02;;
11839;SDS011;5979;50.800;4.904;2023-04-03T08:03:04;12.00;;;8.63;;
11839;SDS011;5979;50.800;4.904;2023-04-03T08:05:30;10.35;;;8.40;;
11839;SDS011;5979;50.800;4.904;2023-04-03T08:07:56;9.60;;;8.60;;
11839;SDS011;5979;50.800;4.904;2023-04-03T08:10:22;9.80;;;8.65;;
11839;SDS011;5979;50.800;4.904;2023-04-03T08:12:48;8.73;;;7.30;;
11839;SDS011;5979;50.800;4.904;2023-04-03T08:15:14;8.32;;;7.57;;
11839;SDS011;5979;50.800;4.904;2023-04-03T08:17:39;9.13;;;7.75;;
11839;SDS011;5979;50.800;4.904;2023-04-03T08:20:05;8.05;;;7.25;;
11839;SDS011;5979;50.800;4.904;2023-04-03T08:22:33;8.93;;;8.05;;
11839;SDS011;5979;50.800;4.904;2023-04-03T08:24:59;8.32;;;6.72;;
11839;SDS011;5979;50.800;4.904;2023-04-03T08:27:26;7.38;;;6.80;;
11839;SDS011;5979;50.800;4.904;2023-04-03T08:29:52;7.72;;;7.03;;
11839;SDS011;5979;50.800;4.904;2023-04-03T08:32:18;7.13;;;6.43;;
11839;SDS011;5979;50.800;4.904;2023-04-03T08:34:44;8.32;;;6.53;;
11839;SDS011;5979;50.800;4.904;2023-04-03T08:37:09;6.72;;;6.13;;
11839;SDS011;5979;50.800;4.904;2023-04-03T08:39:35;7.28;;;6.53;;
11839;SDS011;5979;50.800;4.904;2023-04-03T08:42:02;7.65;;;6.15;;
11839;SDS011;5979;50.800;4.904;2023-04-03T08:47:09;7.72;;;6.53;;
11839;SDS011;5979;50.800;4.904;2023-04-03T08:49:49;6.95;;;5.55;;
11839;SDS011;5979;50.800;4.904;2023-04-03T08:55:26;7.05;;;5.55;;
11839;SDS011;5979;50.800;4.904;2023-04-03T09:00:57;6.15;;;5.53;;
11839;SDS011;5979;50.800;4.904;2023-04-03T09:03:28;6.78;;;5.68;;
11839;SDS011;5979;50.800;4.904;2023-04-03T09:06:06;6.53;;;4.97;;
11839;SDS011;5979;50.800;4.904;2023-04-03T09:17:03;5.32;;;4.72;;
11839;SDS011;5979;50.800;4.904;2023-04-03T09:19:47;5.80;;;5.30;;
11839;SDS011;5979;50.800;4.904;2023-04-03T09:22:24;6.50;;;4.50;;
11839;SDS011;5979;50.800;4.904;2023-04-03T09:24:57;7.70;;;4.78;;
11839;SDS011;5979;50.800;4.904;2023-04-03T09:27:26;4.45;;;3.97;;
11839;SDS011;5979;50.800;4.904;2023-04-03T09:29:53;4.35;;;3.95;;
11839;SDS011;5979;50.800;4.904;2023-04-03T09:32:28;5.10;;;4.70;;
11839;SDS011;5979;50.800;4.904;2023-04-03T09:34:55;4.50;;;4.00;;
11839;SDS011;5979;50.800;4.904;2023-04-03T09:37:37;5.80;;;3.60;;
11839;SDS011;5979;50.800;4.904;2023-04-03T09:42:56;4.78;;;3.65;;
11839;SDS011;5979;50.800;4.904;2023-04-03T09:45:31;3.72;;;3.33;;
11839;SDS011;5979;50.800;4.904;2023-04-03T09:50:30;3.92;;;3.50;;
11839;SDS011;5979;50.800;4.904;2023-04-03T09:52:55;3.83;;;3.50;;
11839;SDS011;5979;50.800;4.904;2023-04-03T09:55:22;5.45;;;3.75;;
11839;SDS011;5979;50.800;4.904;2023-04-03T09:58:00;4.38;;;3.55;;
11839;SDS011;5979;50.800;4.904;2023-04-03T10:00:35;4.72;;;3.20;;
11839;SDS011;5979;50.800;4.904;2023-04-03T10:03:03;5.22;;;3.22;;
11839;SDS011;5979;50.800;4.904;2023-04-03T10:05:37;3.95;;;2.95;;
11839;SDS011;5979;50.800;4.904;2023-04-03T10:10:44;3.90;;;3.58;;
11839;SDS011;5979;50.800;4.904;2023-04-03T10:13:18;3.83;;;2.65;;
11839;SDS011;5979;50.800;4.904;2023-04-03T10:15:50;4.22;;;3.20;;
11839;SDS011;5979;50.800;4.904;2023-04-03T10:21:10;2.80;;;2.60;;
11839;SDS011;5979;50.800;4.904;2023-04-03T10:24:28;3.13;;;2.67;;
11839;SDS011;5979;50.800;4.904;2023-04-03T10:32:17;3.22;;;2.92;;
11839;SDS011;5979;50.800;4.904;2023-04-03T10:40:28;2.78;;;2.40;;
11839;SDS011;5979;50.800;4.904;2023-04-03T10:51:32;3.22;;;2.15;;
11839;SDS011;5979;50.800;4.904;2023-04-03T10:54:17;3.00;;;2.00;;
11839;SDS011;5979;50.800;4.904;2023-04-03T10:56:55;3.78;;;2.50;;
11839;SDS011;5979;50.800;4.904;2023-04-03T10:59:30;4.25;;;2.33;;
11839;SDS011;5979;50.800;4.904;2023-04-03T11:02:04;2.88;;;2.00;;
11839;SDS011;5979;50.800;4.904;2023-04-03T11:04:37;3.25;;;2.53;;
11839;SDS011;5979;50.800;4.904;2023-04-03T11:07:15;2.58;;;2.35;;
11839;SDS011;5979;50.800;4.904;2023-04-03T11:09:48;4.13;;;2.65;;
11839;SDS011;5979;50.800;4.904;2023-04-03T11:12:27;2.92;;;2.65;;
11839;SDS011;5979;50.800;4.904;2023-04-03T11:15:03;2.80;;;2.38;;
11839;SDS011;5979;50.800;4.904;2023-04-03T11:17:35;3.83;;;2.53;;
11839;SDS011;5979;50.800;4.904;2023-04-03T11:20:19;2.67;;;2.47;;
11839;SDS011;5979;50.800;4.904;2023-04-03T11:23:06;2.97;;;2.42;;
11839;SDS011;5979;50.800;4.904;2023-04-03T11:25:46;2.38;;;2.17;;
11839;SDS011;5979;50.800;4.904;2023-04-03T11:28:17;3.15;;;2.00;;
11839;SDS011;5979;50.800;4.904;2023-04-03T11:30:51;4.93;;;2.10;;
11839;SDS011;5979;50.800;4.904;2023-04-03T11:38:49;1.42;;;1.33;;
11839;SDS011;5979;50.800;4.904;2023-04-03T11:41:26;1.63;;;1.45;;
11839;SDS011;5979;50.800;4.904;2023-04-03T11:44:00;1.38;;;1.33;;
11839;SDS011;5979;50.800;4.904;2023-04-03T11:46:59;1.67;;;1.42;;
11839;SDS011;5979;50.800;4.904;2023-04-03T11:50:12;1.63;;;1.52;;
11839;SDS011;5979;50.800;4.904;2023-04-03T12:05:49;2.17;;;2.08;;
11839;SDS011;5979;50.800;4.904;2023-04-03T12:16:29;2.40;;;1.70;;
11839;SDS011;5979;50.800;4.904;2023-04-03T12:19:47;1.80;;;1.27;;
11839;SDS011;5979;50.800;4.904;2023-04-03T12:24:25;2.30;;;1.55;;
11839;SDS011;5979;50.800;4.904;2023-04-03T12:32:22;1.35;;;1.25;;
11839;SDS011;5979;50.800;4.904;2023-04-03T12:46:03;1.70;;;1.60;;
11839;SDS011;5979;50.800;4.904;2023-04-03T12:51:13;1.67;;;1.50;;
11839;SDS011;5979;50.800;4.904;2023-04-03T12:53:42;2.47;;;1.67;;
11839;SDS011;5979;50.800;4.904;2023-04-03T12:58:48;3.63;;;1.45;;
11839;SDS011;5979;50.800;4.904;2023-04-03T13:01:20;1.65;;;1.55;;
11839;SDS011;5979;50.800;4.904;2023-04-03T13:03:49;2.05;;;1.80;;
11839;SDS011;5979;50.800;4.904;2023-04-03T13:06:24;1.63;;;1.52;;
11839;SDS011;5979;50.800;4.904;2023-04-03T13:08:56;3.30;;;1.52;;
11839;SDS011;5979;50.800;4.904;2023-04-03T13:11:24;2.88;;;2.08;;
11839;SDS011;5979;50.800;4.904;2023-04-03T13:13:56;2.10;;;1.85;;
11839;SDS011;5979;50.800;4.904;2023-04-03T13:16:26;2.08;;;1.88;;
11839;SDS011;5979;50.800;4.904;2023-04-03T13:18:52;3.63;;;2.08;;
11839;SDS011;5979;50.800;4.904;2023-04-03T13:21:20;1.80;;;1.50;;
11839;SDS011;5979;50.800;4.904;2023-04-03T13:23:52;2.20;;;2.00;;
11839;SDS011;5979;50.800;4.904;2023-04-03T13:26:21;5.30;;;1.92;;
11839;SDS011;5979;50.800;4.904;2023-04-03T13:28:49;3.33;;;1.50;;
11839;SDS011;5979;50.800;4.904;2023-04-03T13:31:18;5.32;;;1.73;;
11839;SDS011;5979;50.800;4.904;2023-04-03T13:36:23;2.35;;;2.15;;
11839;SDS011;5979;50.800;4.904;2023-04-03T13:41:40;6.40;;;2.10;;
11839;SDS011;5979;50.800;4.904;2023-04-03T13:46:59;1.88;;;1.63;;
11839;SDS011;5979;50.800;4.904;2023-04-03T13:50:13;3.20;;;1.80;;
11839;SDS011;5979;50.800;4.904;2023-04-03T13:52:42;1.67;;;1.58;;
11839;SDS011;5979;50.800;4.904;2023-04-03T14:03:12;2.40;;;1.70;;
11839;SDS011;5979;50.800;4.904;2023-04-03T14:05:50;2.22;;;1.98;;
11839;SDS011;5979;50.800;4.904;2023-04-03T14:08:17;4.57;;;1.77;;
11839;SDS011;5979;50.800;4.904;2023-04-03T14:10:43;3.70;;;1.90;;
11839;SDS011;5979;50.800;4.904;2023-04-03T14:13:11;2.95;;;2.00;;
11839;SDS011;5979;50.800;4.904;2023-04-03T14:15:39;2.63;;;2.22;;
11839;SDS011;5979;50.800;4.904;2023-04-03T14:18:05;3.60;;;2.25;;
11839;SDS011;5979;50.800;4.904;2023-04-03T14:20:31;2.00;;;1.90;;
11839;SDS011;5979;50.800;4.904;2023-04-03T14:22:56;2.28;;;1.92;;
11839;SDS011;5979;50.800;4.904;2023-04-03T14:25:23;2.72;;;2.20;;
11839;SDS011;5979;50.800;4.904;2023-04-03T14:27:51;2.58;;;2.13;;
11839;SDS011;5979;50.800;4.904;2023-04-03T14:32:52;2.97;;;2.15;;
11839;SDS011;5979;50.800;4.904;2023-04-03T14:35:19;5.70;;;2.80;;
11839;SDS011;5979;50.800;4.904;2023-04-03T14:37:46;3.28;;;2.20;;
11839;SDS011;5979;50.800;4.904;2023-04-03T14:40:13;2.97;;;2.40;;
11839;SDS011;5979;50.800;4.904;2023-04-03T14:42:43;2.65;;;2.13;;
11839;SDS011;5979;50.800;4.904;2023-04-03T14:45:10;4.70;;;2.72;;
11839;SDS011;5979;50.800;4.904;2023-04-03T14:47:47;2.90;;;2.00;;
11839;SDS011;5979;50.800;4.904;2023-04-03T14:50:16;5.45;;;2.30;;
11839;SDS011;5979;50.800;4.904;2023-04-03T14:52:46;6.00;;;2.22;;
11839;SDS011;5979;50.800;4.904;2023-04-03T14:55:15;3.70;;;2.50;;
11839;SDS011;5979;50.800;4.904;2023-04-03T14:57:42;3.22;;;2.17;;
11839;SDS011;5979;50.800;4.904;2023-04-03T15:00:12;4.65;;;2.45;;
11839;SDS011;5979;50.800;4.904;2023-04-03T15:02:40;3.65;;;2.25;;
11839;SDS011;5979;50.800;4.904;2023-04-03T15:05:07;2.33;;;2.20;;
11839;SDS011;5979;50.800;4.904;2023-04-03T15:07:39;3.75;;;2.10;;
11839;SDS011;5979;50.800;4.904;2023-04-03T15:10:15;2.17;;;1.90;;
11839;SDS011;5979;50.800;4.904;2023-04-03T15:12:41;3.42;;;2.47;;
11839;SDS011;5979;50.800;4.904;2023-04-03T15:15:08;2.33;;;2.10;;
11839;SDS011;5979;50.800;4.904;2023-04-03T15:17:34;2.50;;;2.30;;
11839;SDS011;5979;50.800;4.904;2023-04-03T15:20:02;5.90;;;2.47;;
11839;SDS011;5979;50.800;4.904;2023-04-03T15:22:28;2.85;;;1.98;;
11839;SDS011;5979;50.800;4.904;2023-04-03T15:24:54;2.92;;;2.33;;
11839;SDS011;5979;50.800;4.904;2023-04-03T15:27:19;1.90;;;1.80;;
11839;SDS011;5979;50.800;4.904;2023-04-03T15:29:45;2.75;;;1.95;;
11839;SDS011;5979;50.800;4.904;2023-04-03T15:32:11;4.07;;;2.60;;
11839;SDS011;5979;50.800;4.904;2023-04-03T15:34:37;5.13;;;2.20;;
11839;SDS011;5979;50.800;4.904;2023-04-03T15:37:03;3.80;;;2.15;;
11839;SDS011;5979;50.800;4.904;2023-04-03T15:39:30;2.45;;;2.17;;
11839;SDS011;5979;50.800;4.904;2023-04-03T15:41:55;2.35;;;2.22;;
11839;SDS011;5979;50.800;4.904;2023-04-03T15:44:24;1.90;;;1.80;;
11839;SDS011;5979;50.800;4.904;2023-04-03T15:46:50;4.43;;;2.20;;
11839;SDS011;5979;50.800;4.904;2023-04-03T15:49:17;4.38;;;2.30;;
11839;SDS011;5979;50.800;4.904;2023-04-03T15:51:43;3.40;;;2.15;;
11839;SDS011;5979;50.800;4.904;2023-04-03T15:54:09;3.08;;;2.13;;
11839;SDS011;5979;50.800;4.904;2023-04-03T15:56:35;2.63;;;2.03;;
11839;SDS011;5979;50.800;4.904;2023-04-03T15:59:01;2.92;;;2.00;;
11839;SDS011;5979;50.800;4.904;2023-04-03T16:01:26;2.13;;;1.92;;
11839;SDS011;5979;50.800;4.904;2023-04-03T16:03:53;3.38;;;2.05;;
11839;SDS011;5979;50.800;4.904;2023-04-03T16:06:19;4.13;;;2.30;;
11839;SDS011;5979;50.800;4.904;2023-04-03T16:08:46;2.50;;;2.03;;
11839;SDS011;5979;50.800;4.904;2023-04-03T16:11:14;3.50;;;2.15;;
11839;SDS011;5979;50.800;4.904;2023-04-03T16:13:40;4.80;;;1.80;;
11839;SDS011;5979;50.800;4.904;2023-04-03T16:16:07;2.53;;;2.33;;
11839;SDS011;5979;50.800;4.904;2023-04-03T16:18:33;2.20;;;2.10;;
11839;SDS011;5979;50.800;4.904;2023-04-03T16:21:00;4.10;;;2.35;;
11839;SDS011;5979;50.800;4.904;2023-04-03T16:23:26;2.10;;;1.90;;
11839;SDS011;5979;50.800;4.904;2023-04-03T16:25:52;2.38;;;1.80;;
11839;SDS011;5979;50.800;4.904;2023-04-03T16:28:18;2.50;;;2.25;;
11839;SDS011;5979;50.800;4.904;2023-04-03T16:30:44;2.00;;;1.90;;
11839;SDS011;5979;50.800;4.904;2023-04-03T16:33:12;5.55;;;2.15;;
11839;SDS011;5979;50.800;4.904;2023-04-03T16:35:38;2.90;;;2.00;;
11839;SDS011;5979;50.800;4.904;2023-04-03T16:38:07;2.45;;;2.00;;
11839;SDS011;5979;50.800;4.904;2023-04-03T16:40:32;3.33;;;1.98;;
11839;SDS011;5979;50.800;4.904;2023-04-03T16:42:59;3.20;;;2.30;;
11839;SDS011;5979;50.800;4.904;2023-04-03T16:45:26;3.78;;;2.00;;
11839;SDS011;5979;50.800;4.904;2023-04-03T16:47:51;2.63;;;2.10;;
11839;SDS011;5979;50.800;4.904;2023-04-03T16:50:17;2.85;;;1.75;;
11839;SDS011;5979;50.800;4.904;2023-04-03T16:52:44;3.22;;;1.92;;
11839;SDS011;5979;50.800;4.904;2023-04-03T16:55:11;2.53;;;1.90;;
11839;SDS011;5979;50.800;4.904;2023-04-03T16:57:37;2.65;;;2.20;;
11839;SDS011;5979;50.800;4.904;2023-04-03T17:00:03;1.80;;;1.70;;
11839;SDS011;5979;50.800;4.904;2023-04-03T17:02:30;6.53;;;2.30;;
11839;SDS011;5979;50.800;4.904;2023-04-03T17:04:56;3.72;;;1.90;;
11839;SDS011;5979;50.800;4.904;2023-04-03T17:07:22;2.22;;;1.90;;
11839;SDS011;5979;50.800;4.904;2023-04-03T17:09:49;2.65;;;2.22;;
11839;SDS011;5979;50.800;4.904;2023-04-03T17:12:15;3.97;;;2.20;;
11839;SDS011;5979;50.800;4.904;2023-04-03T17:14:42;2.97;;;2.10;;